Latest Weather Observations for Broken Hill Airport

IDN60801

Issued at 3:32 pm EST Tuesday 28 July 2015 (issued every 30 minutes, with the page automatically refreshed every 10 minutes)

About weather observations | Map of weather stations | Latest weather observations for NSW | Other Formats
Station Details ID: 047048 Name: BROKEN HILL AIRPORT AWS Lat: -32.00 Lon: 141.47 Height: 281.3 m
Data from the previous 72 hours. | See also: Recent months for locations in New South Wales
Date/Time
EST
Temp
°C
App
Temp
°C
Dew
Point
Rel
Hum
%
Delta-T
°C
Wind Press
QNH
hPa
Press
MSL
hPa
Rain
since 9 am
mm
Dir
 
Spd
km/h
Gust
km/h
Spd
kts
Gust
kts
28/03:30pm 12.7 8.7 0.5 43 5.1 SSE 11 17 6 9 1034.4 1034.7 0.0
28/03:00pm 12.8 8.5 1.2 45 5.0 SE 13 17 7 9 1034.5 1034.8 0.0
28/02:30pm 12.5 8.7 1.5 47 4.8 SE 11 17 6 9 1034.7 1035.0 0.0
28/02:00pm 12.1 7.8 1.1 47 4.7 SSE 13 19 7 10 1035.2 1035.5 0.0
28/01:30pm 12.1 8.5 0.5 45 4.9 SSE 9 17 5 9 1035.5 1035.9 0.0
28/01:00pm 12.3 8.6 2.2 50 4.4 SE 11 19 6 10 1035.9 1036.3 0.0
28/12:30pm 11.6 7.7 1.3 49 4.4 S 11 20 6 11 1036.6 1037.0 0.0
28/12:00pm 11.9 9.1 2.1 51 4.2 ENE 6 15 3 8 1037.3 1037.7 0.0
28/11:30am 11.1 7.2 1.4 51 4.1 SSE 11 20 6 11 1037.7 1038.1 0.0
28/11:00am 10.8 6.6 1.9 54 3.8 S 13 19 7 10 1038.3 1038.7 0.0
28/10:30am 10.6 6.8 1.7 54 3.8 SSE 11 19 6 10 1038.6 1039.0 0.0
28/10:00am 8.7 5.9 2.3 64 2.7 S 6 11 3 6 1038.3 1038.7 0.0
28/09:30am 7.1 5.0 1.4 67 2.3 SSW 2 9 1 5 1038.4 1038.8 0.0
28/09:00am 5.6 3.8 1.5 75 1.6 CALM 0 0 0 0 1038.2 1038.5 0.0
28/08:30am 3.2 1.4 1.4 88 0.7 CALM 0 0 0 0 1038.0 1038.3 0.0
28/08:00am 0.4 -3.0 -1.8 85 0.8 SSW 6 7 3 4 1038.0 1038.3 0.0
28/07:30am 0.0 -2.4 -2.9 81 1.0 CALM 0 0 0 0 1037.4 1037.8 0.0
28/07:00am 1.7 -0.4 -1.0 82 1.0 CALM 0 0 0 0 1036.8 1037.2 0.0
28/06:30am 0.8 -1.5 -2.2 80 1.1 CALM 0 0 0 0 1036.5 1036.9 0.0
28/06:00am 1.9 -0.3 -1.2 80 1.1 CALM 0 0 0 0 1036.0 1036.4 0.0
28/05:30am 1.2 -1.0 -1.7 81 1.0 CALM 0 0 0 0 1035.7 1036.1 0.0
28/05:00am 1.4 -0.8 -1.2 83 0.9 CALM 0 0 0 0 1035.6 1036.0 0.0
28/04:30am 1.9 -0.3 -1.3 79 1.2 CALM 0 0 0 0 1035.8 1036.2 0.0
28/04:00am 0.7 -1.6 -2.0 82 1.0 CALM 0 0 0 0 1035.7 1036.1 0.0
28/03:30am 1.7 -0.6 -2.6 73 1.5 CALM 0 0 0 0 1035.6 1036.0 0.0
28/03:00am 4.2 2.2 -0.2 73 1.7 CALM 0 0 0 0 1035.6 1036.0 0.0
28/02:30am 4.0 2.0 -0.4 73 1.7 CALM 0 0 0 0 1035.7 1036.1 0.0
28/02:00am 4.5 2.5 -0.1 72 1.7 CALM 0 0 0 0 1035.8 1036.2 0.0
28/01:30am 4.8 2.1 0.0 71 1.9 ESE 4 6 2 3 1035.8 1036.2 0.0
28/01:00am 4.7 1.6 0.1 72 1.8 ESE 6 7 3 4 1035.7 1036.1 0.0
28/12:30am 4.3 1.2 0.1 74 1.6 ESE 6 9 3 5 1035.6 1036.0 0.0
28/12:00am 3.8 -0.4 -0.6 73 1.6 ESE 11 13 6 7 1035.7 1036.1 0.0
 
Date/Time
EST
Temp
°C
App
Temp
°C
Dew
Point
Rel
Hum
%
Delta-T
°C
Wind Press
QNH
hPa
Press
MSL
hPa
Rain
since 9 am
mm
Dir
 
Spd
km/h
Gust
km/h
Spd
kts
Gust
kts
27/11:30pm 4.2 -0.3 -0.4 72 1.7 ESE 13 15 7 8 1035.8 1036.2 0.0
27/11:00pm 4.7 2.3 -0.5 69 2.0 SE 2 9 1 5 1036.0 1036.4 0.0
27/10:30pm 4.9 2.1 -0.5 68 2.1 S 4 6 2 3 1036.1 1036.5 0.0
27/10:00pm 3.6 -0.7 -1.5 69 1.8 SW 11 15 6 8 1036.1 1036.5 0.0
27/09:30pm 5.8 2.4 -0.5 64 2.4 ESE 7 9 4 5 1035.7 1036.1 0.0
27/09:00pm 6.1 3.3 -0.6 62 2.6 ESE 4 7 2 4 1035.5 1035.9 0.0
27/08:30pm 6.3 3.1 -0.4 62 2.6 SE 6 9 3 5 1035.4 1035.8 0.0
27/08:00pm 6.5 4.1 -0.5 61 2.7 SSE 2 7 1 4 1035.0 1035.3 0.0
27/07:30pm 7.0 5.0 -0.4 59 2.9 CALM 0 0 0 0 1034.9 1035.2 0.0
27/07:00pm 7.2 4.4 -0.7 57 3.0 SSE 4 7 2 4 1034.3 1034.6 0.0
27/06:30pm 7.8 3.6 -0.7 55 3.3 S 11 13 6 7 1034.0 1034.4 0.0
27/06:00pm 9.3 4.8 -0.6 50 3.9 S 13 17 7 9 1033.6 1034.0 0.0
27/05:30pm 10.8 5.9 -0.3 46 4.5 S 15 19 8 10 1033.3 1033.7 0.0
27/05:00pm 11.6 5.9 -0.9 42 5.0 S 19 26 10 14 1033.1 1033.5 0.0
27/04:30pm 11.9 6.2 -0.9 41 5.2 S 19 26 10 14 1032.9 1033.3 0.0
27/04:00pm 12.1 6.4 -1.1 40 5.3 S 19 28 10 15 1032.9 1033.3 0.0
27/03:30pm 12.1 6.8 -0.7 41 5.2 SSW 17 26 9 14 1032.7 1033.1 0.0
27/03:00pm 12.2 6.8 -1.0 40 5.3 S 17 26 9 14 1032.8 1033.2 0.0
27/02:30pm 11.9 6.4 -1.9 38 5.5 S 17 28 9 15 1032.6 1033.0 0.0
27/02:00pm 11.8 6.0 -1.3 40 5.2 SSW 19 28 10 15 1032.8 1033.2 0.0
27/01:30pm 11.3 5.3 -1.8 40 5.2 S 20 28 11 15 1033.2 1033.6 0.0
27/01:00pm 11.5 5.9 0.0 45 4.7 SSW 19 26 10 14 1033.4 1033.8 0.0
27/12:30pm 10.9 5.8 0.6 49 4.3 S 17 30 9 16 1033.8 1034.2 0.0
27/12:00pm 10.8 5.3 1.6 53 3.9 SSW 20 26 11 14 1034.5 1034.8 0.0
27/11:30am 10.3 5.5 2.7 59 3.3 S 17 22 9 12 1034.8 1035.1 0.0
27/11:00am 9.5 4.7 2.4 61 3.0 S 17 24 9 13 1034.9 1035.2 0.0
27/10:30am 8.7 3.5 2.5 65 2.7 SSW 19 20 10 11 1034.9 1035.2 0.0
27/10:00am 8.1 3.0 3.2 71 2.1 SSW 19 24 10 13 1034.9 1035.2 0.0
27/09:30am 6.6 2.3 3.0 78 1.5 SW 15 19 8 10 1034.7 1035.0 0.0
27/09:00am 4.9 0.9 2.8 86 0.9 SW 13 19 7 10 1034.4 1034.7 0.0
27/08:30am 3.6 0.6 2.3 91 0.5 W 7 7 4 4 1033.8 1034.2 0.0
27/08:00am 2.5 -0.6 1.3 92 0.5 W 7 9 4 5 1033.4 1033.8 0.0
27/07:30am 2.1 -1.5 0.9 92 0.5 W 9 9 5 5 1033.1 1033.5 0.0
27/07:00am 2.3 -0.8 1.1 92 0.5 W 7 9 4 5 1032.7 1033.1 0.0
27/06:30am 2.3 -0.9 1.0 91 0.5 W 7 9 4 5 1032.2 1032.5 0.0
27/06:00am 2.4 -0.7 1.1 91 0.5 WSW 7 9 4 5 1031.8 1032.1 0.0
27/05:30am 2.6 -0.4 1.1 90 0.6 WSW 6 6 3 3 1031.5 1031.8 0.0
27/05:00am 2.6 -0.4 1.0 89 0.6 SW 6 7 3 4 1031.4 1031.7 0.0
27/04:30am 2.7 -0.2 1.2 90 0.6 SW 6 7 3 4 1031.1 1031.4 0.0
27/04:00am 2.5 -1.1 0.7 88 0.7 SW 9 9 5 5 1030.9 1031.2 0.0
27/03:30am 2.6 -1.4 0.7 87 0.7 WSW 11 11 6 6 1030.7 1031.0 0.0
27/03:00am 3.0 -0.6 0.9 86 0.8 WSW 9 9 5 5 1030.6 1030.9 0.0
27/02:30am 3.5 0.4 1.1 84 0.9 WSW 7 9 4 5 1030.3 1030.7 0.0
27/02:00am 3.7 0.1 0.9 82 1.1 WSW 9 11 5 6 1030.1 1030.5 0.0
27/01:30am 4.7 -0.3 1.4 79 1.3 SW 17 20 9 11 1029.8 1030.2 0.0
27/01:00am 5.2 0.2 1.5 77 1.5 SW 17 20 9 11 1029.5 1029.9 0.0
27/12:30am 4.6 0.4 1.6 81 1.2 WSW 13 19 7 10 1029.3 1029.7 0.0
27/12:00am 4.2 0.3 1.2 81 1.2 WSW 11 13 6 7 1029.1 1029.4 0.0
 
Date/Time
EST
Temp
°C
App
Temp
°C
Dew
Point
Rel
Hum
%
Delta-T
°C
Wind Press
QNH
hPa
Press
MSL
hPa
Rain
since 9 am
mm
Dir
 
Spd
km/h
Gust
km/h
Spd
kts
Gust
kts
26/11:30pm 4.6 0.7 1.3 79 1.3 WSW 11 13 6 7 1028.9 1029.2 0.0
26/11:00pm 5.7 1.5 1.4 74 1.7 WSW 13 15 7 8 1028.8 1029.1 0.0
26/10:30pm 6.9 2.3 1.6 69 2.2 SW 15 20 8 11 1028.7 1029.0 0.0
26/10:00pm 7.9 3.3 1.5 64 2.6 WSW 15 19 8 10 1028.7 1029.0 0.0
26/09:30pm 7.5 3.5 0.7 62 2.7 WSW 11 13 6 7 1028.5 1028.8 0.0
26/09:00pm 8.9 4.2 0.6 56 3.4 WSW 15 20 8 11 1028.2 1028.5 0.0
26/08:30pm 9.4 4.7 0.6 54 3.6 WSW 15 17 8 9 1027.8 1028.1 0.0
26/08:00pm 9.5 4.8 1.2 56 3.4 WSW 15 20 8 11 1027.4 1027.7 0.0
26/07:30pm 9.4 4.3 0.8 55 3.6 WSW 17 20 9 11 1027.0 1027.3 0.0
26/07:00pm 10.3 5.6 0.9 52 3.9 WSW 15 24 8 13 1026.6 1027.0 0.0
26/06:30pm 10.4 6.1 1.0 52 3.9 SW 13 17 7 9 1025.9 1026.2 0.0
26/06:00pm 10.6 5.1 0.6 50 4.1 SW 19 24 10 13 1025.5 1025.8 0.0
26/05:30pm 11.0 4.1 0.1 47 4.5 SW 26 37 14 20 1025.2 1025.5 0.0
26/05:00pm 11.4 3.7 -0.1 45 4.7 SW 30 41 16 22 1024.9 1025.2 0.0
26/04:30pm 11.8 4.6 0.6 46 4.7 SW 28 37 15 20 1024.5 1024.8 0.0
26/04:00pm 12.0 4.6 1.6 49 4.5 SW 30 37 16 20 1024.2 1024.5 0.0
26/03:30pm 12.7 5.4 2.3 49 4.6 SW 30 41 16 22 1023.9 1024.2 0.0
26/03:00pm 13.1 6.2 2.6 49 4.7 WSW 28 39 15 21 1023.8 1024.1 0.0
26/02:30pm 12.7 5.7 2.0 48 4.7 WSW 28 39 15 21 1023.7 1024.0 0.0
26/02:00pm 12.3 5.0 2.5 51 4.3 WSW 30 39 16 21 1023.6 1023.9 0.0
26/01:30pm 12.3 5.8 2.7 52 4.3 WSW 26 35 14 19 1023.6 1023.9 0.0
26/01:00pm 12.6 5.5 3.3 53 4.2 SW 30 39 16 21 1023.7 1024.0 0.0
26/12:30pm 12.3 5.6 3.8 56 3.8 SW 28 33 15 18 1024.0 1024.3 0.0
26/12:00pm 12.1 5.2 4.6 60 3.5 SW 30 37 16 20 1024.2 1024.5 0.0
26/11:30am 11.9 5.5 5.3 64 3.1 SW 28 37 15 20 1024.0 1024.3 0.0
26/11:00am 11.9 6.4 5.8 66 2.9 SW 24 33 13 18 1024.1 1024.4 0.0
26/10:30am 11.7 6.7 6.4 70 2.5 SW 22 28 12 15 1023.9 1024.2 0.0
26/10:00am 11.6 7.0 6.7 72 2.4 WSW 20 30 11 16 1023.6 1023.9 0.0
26/09:30am 10.9 5.4 6.1 72 2.3 WSW 24 30 13 16 1023.2 1023.4 0.0
26/09:00am 10.8 5.3 5.8 71 2.3 WSW 24 33 13 18 1022.7 1023.0 0.0
26/08:30am 10.0 4.5 4.2 67 2.6 W 22 30 12 16 1022.4 1022.7 0.0
26/08:00am 9.5 2.8 3.7 67 2.6 WNW 28 35 15 19 1021.7 1022.0 0.0
26/07:30am 9.4 4.2 3.8 68 2.5 WNW 20 28 11 15 1021.0 1021.3 0.0
26/07:00am 9.5 3.9 3.7 67 2.6 WNW 22 28 12 15 1020.4 1020.7 0.0
26/06:30am 9.6 3.3 3.8 67 2.6 WNW 26 32 14 17 1020.1 1020.3 0.0
26/06:00am 9.1 3.5 3.5 68 2.5 WNW 22 30 12 16 1019.5 1019.7 0.0
26/05:30am 9.6 3.3 3.8 67 2.6 WNW 26 35 14 19 1019.3 1019.5 0.0
26/05:00am 9.8 3.1 3.8 66 2.7 NW 28 35 15 19 1019.1 1019.4 0.0
26/04:30am 9.6 3.3 3.8 67 2.6 NW 26 33 14 18 1019.4 1019.6 0.0
26/04:00am 9.8 3.5 3.8 66 2.7 NW 26 33 14 18 1019.5 1019.7 0.0
26/03:30am 10.1 3.8 4.0 66 2.7 NW 26 37 14 20 1019.7 1019.9 0.0
26/03:00am 10.3 3.7 4.0 65 2.8 NW 28 41 15 22 1019.9 1020.1 0.0
26/02:30am 10.5 3.9 4.2 65 2.8 WNW 28 37 15 20 1019.8 1020.0 0.0
26/02:00am 10.5 3.9 4.2 65 2.8 WNW 28 39 15 21 1019.9 1020.1 0.0
26/01:30am 10.7 4.1 4.2 64 2.9 NW 28 39 15 21 1019.9 1020.1 0.0
26/01:00am 11.0 4.4 4.2 63 3.1 NW 28 39 15 21 1019.9 1020.1 0.0
26/12:30am 10.8 4.9 4.0 63 3.1 WNW 24 35 13 19 1020.0 1020.2 0.0
26/12:00am 11.2 5.4 4.2 62 3.2 NW 24 33 13 18 1020.2 1020.4 0.0
 
Date/Time
EST
Temp
°C
App
Temp
°C
Dew
Point
Rel
Hum
%
Delta-T
°C
Wind Press
QNH
hPa
Press
MSL
hPa
Rain
since 9 am
mm
Dir
 
Spd
km/h
Gust
km/h
Spd
kts
Gust
kts
25/11:30pm 11.6 5.7 4.1 60 3.4 NW 24 33 13 18 1020.2 1020.4 0.0
25/11:00pm 12.0 6.9 4.2 59 3.6 NW 20 30 11 16 1020.5 1020.8 0.0
25/10:30pm 12.4 7.4 4.4 58 3.7 NW 20 30 11 16 1020.4 1020.7 0.0
25/10:00pm 12.4 7.5 4.1 57 3.8 NW 19 26 10 14 1020.5 1020.8 0.0
25/09:30pm 12.4 7.5 4.1 57 3.8 NNW 19 28 10 15 1020.7 1021.0 0.0
25/09:00pm 12.3 7.9 4.5 59 3.6 NNW 17 22 9 12 1020.6 1020.9 0.0
25/08:30pm 12.4 8.0 4.6 59 3.6 NW 17 24 9 13 1020.4 1020.7 0.0
25/08:00pm 12.7 7.9 4.7 58 3.7 NNW 19 24 10 13 1020.3 1020.6 0.0
25/07:30pm 12.9 8.8 4.3 56 4.0 NNW 15 20 8 11 1019.9 1020.1 0.0
25/07:00pm 13.2 8.7 4.4 55 4.1 NNW 17 24 9 13 1019.5 1019.7 0.0
25/06:30pm 13.6 9.5 4.2 53 4.4 NW 15 20 8 11 1019.3 1019.5 0.0
25/06:00pm 13.7 8.8 4.3 53 4.4 NW 19 24 10 13 1019.5 1019.7 0.0
25/05:30pm 14.5 9.0 4.2 50 4.8 NW 22 35 12 19 1019.5 1019.7 0.0
25/05:00pm 14.8 8.5 3.6 47 5.2 WNW 26 35 14 19 1019.4 1019.6 0.0
25/04:30pm 15.1 9.6 3.9 47 5.2 NW 22 32 12 17 1019.0 1019.3 0.0

Other Formats:

Comma delimited format used in spreadsheet applications
http://www.bom.gov.au/fwo/IDN60801/IDN60801.94691.axf

JavaScript Object Notation format (JSON) in row-major order
http://www.bom.gov.au/fwo/IDN60801/IDN60801.94691.json